createdAt,value
2023-03-20T00:02:24.533Z,72.51
2023-03-20T00:04:51.880Z,72.15
2023-03-20T00:07:19.007Z,71.28
2023-03-20T00:09:46.182Z,70.86
2023-03-20T00:12:25.123Z,71.51
2023-03-20T00:14:52.386Z,70.95
2023-03-20T00:17:21.472Z,70.30
2023-03-20T00:19:51.352Z,69.90
2023-03-20T00:22:18.416Z,70.82
2023-03-20T00:24:46.035Z,70.07
2023-03-20T00:27:17.627Z,69.97
2023-03-20T00:29:44.889Z,70.67
2023-03-20T00:32:14.243Z,70.90
2023-03-20T00:34:41.782Z,70.73
2023-03-20T00:37:11.679Z,69.68
2023-03-20T00:39:39.061Z,69.88
2023-03-20T00:42:13.362Z,70.59
2023-03-20T00:44:56.110Z,70.89
2023-03-20T00:47:24.514Z,70.84
2023-03-20T00:49:54.185Z,71.61
2023-03-20T00:52:22.488Z,74.54
2023-03-20T00:54:49.566Z,73.68
2023-03-20T00:57:37.853Z,73.03
2023-03-20T01:00:21.338Z,73.45
2023-03-20T01:02:48.949Z,72.55
2023-03-20T01:05:16.786Z,70.90
2023-03-20T01:07:45.459Z,71.56
2023-03-20T01:10:13.594Z,71.58
2023-03-20T01:12:43.075Z,71.96
2023-03-20T01:15:34.096Z,72.19
2023-03-20T01:18:01.365Z,72.64
2023-03-20T01:20:32.311Z,71.64
2023-03-20T01:22:59.499Z,71.14
2023-03-20T01:25:26.662Z,73.29
2023-03-20T01:27:54.981Z,75.08
2023-03-20T01:30:30.588Z,76.11
2023-03-20T01:32:59.908Z,74.81
2023-03-20T01:35:29.023Z,73.40
2023-03-20T01:37:56.382Z,73.37
2023-03-20T01:40:31.132Z,76.01
2023-03-20T01:42:58.561Z,74.91
2023-03-20T01:45:36.866Z,74.33
2023-03-20T01:48:17.798Z,73.76
2023-03-20T01:50:44.817Z,73.58
2023-03-20T01:53:25.284Z,73.60
2023-03-20T01:55:56.997Z,74.11
2023-03-20T01:58:41.652Z,73.97
2023-03-20T02:01:13.541Z,74.77
2023-03-20T02:03:49.880Z,74.78
2023-03-20T02:06:18.789Z,76.84
2023-03-20T02:08:50.986Z,77.28
2023-03-20T02:11:23.505Z,77.23
2023-03-20T02:13:55.490Z,76.83
2023-03-20T02:16:22.622Z,76.28
2023-03-20T02:18:52.824Z,75.58
2023-03-20T02:22:33.860Z,74.75
2023-03-20T02:25:57.559Z,74.34
2023-03-20T02:28:52.265Z,73.62
2023-03-20T02:31:57.899Z,73.43
2023-03-20T02:34:52.644Z,75.57
2023-03-20T02:37:48.015Z,75.86
2023-03-20T02:40:30.813Z,75.58
2023-03-20T02:43:29.961Z,75.88
2023-03-20T02:46:35.763Z,75.43
2023-03-20T02:49:15.540Z,74.48
2023-03-20T02:52:02.286Z,74.80
2023-03-20T02:54:49.410Z,74.84
2023-03-20T02:57:21.771Z,74.52
2023-03-20T03:00:33.447Z,76.32
2023-03-20T03:03:34.192Z,74.91
2023-03-20T03:06:34.442Z,74.50
2023-03-20T03:09:17.736Z,74.23
2023-03-20T03:11:54.147Z,75.03
2023-03-20T03:14:44.758Z,74.83
2023-03-20T03:17:15.297Z,74.61
2023-03-20T03:19:49.391Z,74.99
2023-03-20T03:22:17.911Z,75.51
2023-03-20T03:24:50.037Z,75.20
2023-03-20T03:27:40.987Z,77.58
2023-03-20T03:30:31.147Z,75.99
2023-03-20T03:33:28.232Z,77.33
2023-03-20T03:36:51.706Z,76.10
2023-03-20T03:39:31.070Z,75.72
2023-03-20T03:42:24.756Z,75.47
2023-03-20T03:45:17.219Z,74.26
2023-03-20T03:48:15.590Z,75.44
2023-03-20T03:50:53.176Z,74.25
2023-03-20T03:53:34.474Z,73.93
2023-03-20T03:56:12.245Z,73.81
2023-03-20T03:58:52.253Z,73.76
2023-03-20T04:01:22.742Z,73.89
2023-03-20T04:03:57.514Z,74.19
2023-03-20T04:06:27.267Z,73.60
2023-03-20T04:08:54.480Z,73.03
2023-03-20T04:11:29.041Z,73.94
2023-03-20T04:13:56.604Z,75.88
2023-03-20T04:16:25.770Z,76.27
2023-03-20T04:18:53.433Z,76.17
2023-03-20T04:21:20.450Z,75.97
2023-03-20T04:23:47.583Z,74.82
2023-03-20T04:26:14.779Z,75.63
2023-03-20T04:28:42.113Z,74.08
2023-03-20T04:31:09.272Z,75.48
2023-03-20T04:33:36.396Z,74.88
2023-03-20T04:36:03.915Z,74.21
2023-03-20T04:38:31.311Z,75.69
2023-03-20T04:41:01.354Z,74.35
2023-03-20T04:43:28.533Z,75.62
2023-03-20T04:45:56.341Z,74.39
2023-03-20T04:48:23.949Z,74.23
2023-03-20T04:50:51.293Z,73.62
2023-03-20T04:53:18.936Z,75.00
2023-03-20T04:55:46.162Z,75.48
2023-03-20T04:58:13.470Z,75.20
2023-03-20T05:00:40.776Z,74.49
2023-03-20T05:03:07.868Z,74.27
2023-03-20T05:05:38.056Z,76.08
2023-03-20T05:08:06.417Z,76.97
2023-03-20T05:10:33.777Z,77.28
2023-03-20T05:13:01.117Z,77.40
2023-03-20T05:15:28.455Z,77.52
2023-03-20T05:17:56.000Z,76.42
2023-03-20T05:20:23.096Z,75.91
2023-03-20T05:22:52.039Z,76.63
2023-03-20T05:25:22.454Z,75.46
2023-03-20T05:27:49.485Z,75.81
2023-03-20T05:30:17.037Z,75.42
2023-03-20T05:32:44.186Z,74.22
2023-03-20T05:35:12.412Z,74.86
2023-03-20T05:37:40.448Z,75.59
2023-03-20T05:40:11.101Z,75.96
2023-03-20T05:42:38.375Z,76.45
2023-03-20T05:45:09.981Z,76.46
2023-03-20T05:47:37.079Z,75.47
2023-03-20T05:50:05.650Z,75.56
2023-03-20T05:52:32.723Z,74.70
2023-03-20T05:54:59.850Z,74.46
2023-03-20T05:57:32.676Z,73.84
2023-03-20T06:00:03.079Z,73.96
2023-03-20T06:02:30.159Z,73.93
2023-03-20T06:04:57.204Z,73.12
2023-03-20T06:07:24.391Z,73.78
2023-03-20T06:09:51.972Z,73.70
2023-03-20T06:12:19.016Z,74.23
2023-03-20T06:14:46.091Z,73.71
2023-03-20T06:17:13.399Z,73.96
2023-03-20T06:19:41.255Z,75.19
2023-03-20T06:22:08.764Z,74.37
2023-03-20T06:24:36.008Z,75.74
2023-03-20T06:27:03.110Z,75.90
2023-03-20T06:29:30.332Z,75.10
2023-03-20T06:31:57.736Z,75.26
2023-03-20T06:34:24.788Z,79.99
2023-03-20T06:36:51.874Z,77.45
2023-03-20T06:39:19.010Z,77.51
2023-03-20T06:41:58.576Z,76.90
2023-03-20T06:44:26.951Z,77.28
2023-03-20T06:46:54.466Z,77.53
2023-03-20T06:49:24.364Z,78.16
2023-03-20T06:51:51.408Z,77.55
2023-03-20T06:54:18.458Z,77.62
2023-03-20T06:56:45.554Z,77.75
2023-03-20T06:59:12.784Z,78.65
2023-03-20T07:01:40.405Z,77.76
2023-03-20T07:04:08.590Z,75.94
2023-03-20T07:06:37.019Z,75.57
2023-03-20T07:09:05.371Z,76.19
2023-03-20T07:11:34.206Z,76.35
2023-03-20T07:14:01.914Z,75.78
2023-03-20T07:16:29.073Z,76.53
2023-03-20T07:18:56.115Z,77.49
2023-03-20T07:21:23.818Z,78.38
2023-03-20T07:23:50.953Z,76.68
2023-03-20T07:26:18.060Z,76.10
2023-03-20T07:28:47.889Z,76.25
2023-03-20T07:31:26.345Z,76.08
2023-03-20T07:33:53.662Z,80.17
2023-03-20T07:36:21.241Z,77.85
2023-03-20T07:38:48.488Z,78.97
2023-03-20T07:41:15.578Z,78.67
2023-03-20T07:43:44.723Z,81.11
2023-03-20T07:46:12.039Z,79.98
2023-03-20T07:48:39.137Z,79.00
2023-03-20T07:51:06.827Z,78.68
2023-03-20T07:53:33.896Z,78.68
2023-03-20T07:56:01.316Z,77.38
2023-03-20T07:58:28.336Z,78.47
2023-03-20T08:00:58.710Z,79.96
2023-03-20T08:03:26.036Z,79.32
2023-03-20T08:05:54.010Z,78.09
2023-03-20T08:08:21.704Z,77.02
2023-03-20T08:10:48.829Z,78.71
2023-03-20T08:13:16.382Z,75.54
2023-03-20T08:15:43.811Z,74.26
2023-03-20T08:18:12.117Z,73.50
2023-03-20T08:20:39.236Z,75.53
2023-03-20T08:23:06.404Z,74.05
2023-03-20T08:25:34.146Z,75.49
2023-03-20T08:28:01.898Z,76.79
2023-03-20T08:30:31.437Z,75.05
2023-03-20T08:32:59.089Z,75.67
2023-03-20T08:35:33.346Z,75.22
2023-03-20T08:38:01.884Z,75.76
2023-03-20T08:40:32.221Z,75.76
2023-03-20T08:42:59.609Z,74.91
2023-03-20T08:45:26.735Z,72.35
2023-03-20T08:47:54.955Z,71.65
2023-03-20T08:50:22.525Z,71.29
2023-03-20T08:52:49.612Z,70.11
2023-03-20T08:55:17.706Z,69.63
2023-03-20T08:57:44.808Z,69.10
2023-03-20T09:00:15.933Z,68.18
2023-03-20T09:02:43.856Z,67.42
2023-03-20T09:05:11.907Z,68.25
2023-03-20T09:07:39.299Z,66.58
2023-03-20T09:10:07.604Z,63.59
2023-03-20T09:12:38.023Z,62.96
2023-03-20T09:15:10.083Z,63.67
2023-03-20T09:17:37.163Z,63.75
2023-03-20T09:20:05.381Z,64.12
2023-03-20T09:22:33.815Z,65.13
2023-03-20T09:25:00.958Z,63.28
2023-03-20T09:27:28.402Z,63.78
2023-03-20T09:29:55.581Z,64.40
2023-03-20T09:32:22.652Z,63.04
2023-03-20T09:34:49.815Z,64.27
2023-03-20T09:37:16.892Z,62.38
2023-03-20T09:39:44.338Z,61.70
2023-03-20T09:42:57.234Z,62.04
2023-03-20T09:46:08.511Z,63.46
2023-03-20T09:49:19.299Z,62.72
2023-03-20T09:52:01.450Z,64.09
2023-03-20T09:54:54.067Z,63.38
2023-03-20T09:57:32.352Z,62.08
2023-03-20T10:00:10.373Z,63.02
2023-03-20T10:03:15.465Z,62.69
2023-03-20T10:05:56.076Z,62.20
2023-03-20T10:08:39.159Z,63.51
2023-03-20T10:12:01.070Z,62.94
2023-03-20T10:15:08.103Z,64.20
2023-03-20T10:18:27.767Z,61.96
2023-03-20T10:21:44.786Z,63.42
2023-03-20T10:24:36.260Z,62.15
2023-03-20T10:27:28.367Z,63.44
2023-03-20T10:30:19.243Z,61.79
2023-03-20T10:33:32.551Z,62.79
2023-03-20T10:36:36.153Z,61.86
2023-03-20T10:39:51.791Z,62.52
2023-03-20T10:42:28.878Z,61.30
2023-03-20T10:45:05.660Z,61.85
2023-03-20T10:47:39.680Z,61.48
2023-03-20T10:50:17.841Z,61.63
2023-03-20T10:52:52.130Z,61.31
2023-03-20T10:55:28.236Z,60.80
2023-03-20T10:58:22.831Z,62.02
2023-03-20T11:00:51.397Z,61.82
2023-03-20T11:03:30.500Z,60.95
2023-03-20T11:06:16.066Z,61.63
2023-03-20T11:08:51.303Z,63.28
2023-03-20T11:11:34.167Z,63.06
2023-03-20T11:14:21.416Z,59.56
2023-03-20T11:16:55.979Z,59.61
2023-03-20T11:19:24.950Z,60.60
2023-03-20T11:21:57.255Z,59.59
2023-03-20T11:24:47.297Z,59.96
2023-03-20T11:27:28.566Z,57.47
2023-03-20T11:29:57.603Z,58.57
2023-03-20T11:32:41.936Z,59.09
2023-03-20T11:35:31.593Z,59.91
2023-03-20T11:38:21.609Z,59.70
2023-03-20T11:40:54.580Z,58.42
2023-03-20T11:43:28.759Z,60.89
2023-03-20T11:46:00.790Z,59.51
2023-03-20T11:48:45.841Z,60.92
2023-03-20T11:51:21.438Z,61.21
2023-03-20T11:53:48.425Z,61.47
2023-03-20T11:56:29.218Z,60.42
2023-03-20T11:59:18.526Z,58.17
2023-03-20T12:01:52.391Z,61.20
2023-03-20T12:04:27.336Z,59.42
2023-03-20T12:06:58.960Z,60.36
2023-03-20T12:09:46.552Z,60.63
2023-03-20T12:12:48.384Z,61.75
2023-03-20T12:15:41.495Z,60.57
2023-03-20T12:18:50.212Z,60.78
2023-03-20T12:21:48.332Z,60.05
2023-03-20T12:24:49.695Z,61.03
2023-03-20T12:27:49.033Z,60.00
2023-03-20T12:31:24.267Z,61.15
2023-03-20T12:34:01.259Z,60.11
2023-03-20T12:36:44.377Z,59.44
2023-03-20T12:39:35.314Z,58.51
2023-03-20T12:42:43.169Z,60.06
2023-03-20T12:45:23.681Z,59.06
2023-03-20T12:48:19.735Z,58.93
2023-03-20T12:51:52.495Z,60.48
2023-03-20T12:54:56.786Z,60.96
2023-03-20T12:57:45.576Z,60.97
2023-03-20T13:00:30.922Z,61.48
2023-03-20T13:03:47.518Z,62.61
2023-03-20T13:06:51.099Z,59.58
2023-03-20T13:09:52.874Z,60.88
2023-03-20T13:13:05.537Z,59.02
2023-03-20T13:15:55.636Z,59.57
2023-03-20T13:19:13.310Z,58.96
2023-03-20T13:21:46.696Z,58.01
2023-03-20T13:24:56.769Z,59.08
2023-03-20T13:28:20.614Z,57.70
2023-03-20T13:32:00.621Z,56.71
2023-03-20T13:35:25.721Z,56.98
2023-03-20T13:38:06.379Z,57.50
2023-03-20T13:40:46.239Z,57.46
2023-03-20T13:43:54.226Z,58.39
2023-03-20T13:46:46.711Z,56.71
2023-03-20T13:49:37.606Z,57.21
2023-03-20T13:52:40.548Z,59.86
2023-03-20T13:55:44.522Z,59.44
2023-03-20T13:58:59.015Z,58.56
2023-03-20T14:02:07.752Z,60.71
2023-03-20T14:04:35.622Z,59.46
2023-03-20T14:07:03.062Z,60.83
2023-03-20T14:09:37.266Z,60.84
2023-03-20T14:12:12.519Z,60.79
2023-03-20T14:15:01.005Z,59.86
2023-03-20T14:17:31.465Z,61.41
2023-03-20T14:20:24.382Z,59.45
2023-03-20T14:22:52.159Z,59.32
2023-03-20T14:25:23.833Z,60.03
2023-03-20T14:28:01.000Z,59.56
2023-03-20T14:30:31.266Z,60.31
2023-03-20T14:33:21.783Z,62.81
2023-03-20T14:36:26.378Z,62.50
2023-03-20T14:39:30.334Z,60.68
2023-03-20T14:42:37.314Z,61.06
2023-03-20T14:45:13.872Z,62.34
2023-03-20T14:48:23.525Z,61.55
2023-03-20T14:51:06.666Z,61.29
2023-03-20T14:53:34.220Z,63.23
2023-03-20T14:56:15.524Z,61.13
2023-03-20T14:58:55.996Z,59.59
2023-03-20T15:01:23.090Z,60.68
2023-03-20T15:03:59.113Z,58.85
2023-03-20T15:06:29.249Z,58.97
2023-03-20T15:09:10.731Z,59.25
2023-03-20T15:11:38.774Z,58.85
2023-03-20T15:14:08.755Z,59.37
2023-03-20T15:16:38.432Z,59.35
2023-03-20T15:19:22.053Z,58.02
2023-03-20T15:21:50.065Z,59.30
2023-03-20T15:24:30.477Z,60.12
2023-03-20T15:27:02.554Z,60.33
2023-03-20T15:29:32.557Z,60.57
2023-03-20T15:32:17.105Z,58.92
2023-03-20T15:34:47.520Z,58.96
2023-03-20T15:37:23.505Z,60.50
2023-03-20T15:39:56.231Z,60.01
2023-03-20T15:42:26.147Z,59.88
2023-03-20T15:44:56.383Z,59.20
2023-03-20T15:47:26.251Z,59.28
2023-03-20T15:50:00.707Z,60.22
2023-03-20T15:52:43.143Z,59.42
2023-03-20T15:55:20.081Z,59.66
2023-03-20T15:57:50.307Z,60.29
2023-03-20T16:00:35.238Z,58.29
2023-03-20T16:03:08.696Z,59.25
2023-03-20T16:05:36.490Z,59.51
2023-03-20T16:08:27.598Z,58.42
2023-03-20T16:11:14.818Z,57.98
2023-03-20T16:13:48.547Z,58.47
2023-03-20T16:16:24.639Z,58.42
2023-03-20T16:18:52.159Z,58.21
2023-03-20T16:21:27.765Z,58.61
2023-03-20T16:23:59.453Z,58.95
2023-03-20T16:26:27.929Z,58.72
2023-03-20T16:29:04.265Z,58.36
2023-03-20T16:31:42.290Z,59.20
2023-03-20T16:34:20.888Z,58.65
2023-03-20T16:36:58.269Z,58.20
2023-03-20T16:39:30.758Z,58.41
2023-03-20T16:42:08.384Z,60.14
2023-03-20T16:44:37.227Z,59.14
2023-03-20T16:47:33.108Z,59.20
2023-03-20T16:50:23.293Z,59.76
2023-03-20T16:52:58.793Z,58.86
2023-03-20T16:55:44.045Z,60.37
2023-03-20T16:58:27.779Z,60.85
2023-03-20T17:01:15.163Z,60.61
2023-03-20T17:04:11.616Z,59.63
2023-03-20T17:06:54.385Z,61.92
2023-03-20T17:09:31.437Z,61.13
2023-03-20T17:12:16.271Z,61.42
2023-03-20T17:14:45.571Z,59.83
2023-03-20T17:17:22.183Z,59.25
2023-03-20T17:19:50.406Z,59.27
2023-03-20T17:22:25.356Z,59.54
2023-03-20T17:24:53.206Z,59.74
2023-03-20T17:27:21.365Z,60.51
2023-03-20T17:29:49.753Z,60.54
2023-03-20T17:32:23.835Z,60.57
2023-03-20T17:34:51.612Z,61.17
2023-03-20T17:37:30.278Z,60.50
2023-03-20T17:39:58.244Z,60.12
2023-03-20T17:42:31.518Z,60.24
2023-03-20T17:45:03.450Z,60.22
2023-03-20T17:47:31.323Z,60.66
2023-03-20T17:49:58.847Z,60.76
2023-03-20T17:52:28.772Z,60.88
2023-03-20T17:54:56.472Z,60.10
2023-03-20T17:57:36.578Z,60.94
2023-03-20T18:00:13.308Z,60.99
2023-03-20T18:02:40.789Z,61.58
2023-03-20T18:05:08.987Z,61.12
2023-03-20T18:07:36.681Z,59.98
2023-03-20T18:10:40.615Z,60.15
2023-03-20T18:13:07.976Z,60.70
2023-03-20T18:15:35.388Z,60.42
2023-03-20T18:18:02.662Z,59.74
2023-03-20T18:20:33.484Z,60.71
2023-03-20T18:23:00.792Z,60.63
2023-03-20T18:25:28.458Z,60.33
2023-03-20T18:27:58.998Z,60.83
2023-03-20T18:30:35.120Z,61.95
2023-03-20T18:33:03.143Z,61.15
2023-03-20T18:35:30.771Z,61.68
2023-03-20T18:37:58.932Z,61.41
2023-03-20T18:40:37.205Z,61.16
2023-03-20T18:43:04.884Z,62.88
2023-03-20T18:45:32.729Z,61.79
2023-03-20T18:48:03.790Z,62.93
2023-03-20T18:50:38.491Z,62.48
2023-03-20T18:53:07.913Z,61.96
2023-03-20T18:55:36.760Z,61.91
2023-03-20T18:58:06.528Z,61.76
2023-03-20T19:00:40.639Z,62.17
2023-03-20T19:03:10.619Z,62.26
2023-03-20T19:05:38.386Z,63.03
2023-03-20T19:08:06.640Z,63.25
2023-03-20T19:10:43.813Z,62.62
2023-03-20T19:13:21.128Z,62.62
2023-03-20T19:15:48.417Z,62.80
2023-03-20T19:18:20.024Z,62.91
2023-03-20T19:20:55.695Z,63.03
2023-03-20T19:23:27.212Z,63.82
2023-03-20T19:25:55.239Z,63.85
2023-03-20T19:28:39.244Z,63.28
2023-03-20T19:31:09.231Z,64.05
2023-03-20T19:33:38.740Z,63.79
2023-03-20T19:36:08.855Z,64.45
2023-03-20T19:38:37.335Z,63.53
2023-03-20T19:41:04.783Z,64.66
2023-03-20T19:43:32.340Z,64.28
2023-03-20T19:46:00.208Z,64.20
2023-03-20T19:48:46.129Z,63.98
2023-03-20T19:51:25.521Z,63.65
2023-03-20T19:53:54.240Z,63.09
2023-03-20T19:56:23.560Z,63.83
2023-03-20T19:58:51.302Z,63.51
2023-03-20T20:01:23.859Z,63.47
2023-03-20T20:03:57.422Z,62.41
2023-03-20T20:06:31.238Z,63.15
2023-03-20T20:09:01.489Z,63.66
2023-03-20T20:11:29.201Z,62.35
2023-03-20T20:16:45.341Z,63.72
2023-03-20T20:19:12.926Z,62.44
2023-03-20T20:24:27.744Z,62.18
2023-03-20T20:27:15.261Z,62.75
2023-03-20T20:29:47.775Z,63.74
2023-03-20T20:32:16.170Z,62.53
2023-03-20T20:40:21.000Z,61.83
2023-03-20T20:42:51.547Z,61.69
2023-03-20T20:45:20.948Z,61.53
2023-03-20T20:47:49.264Z,61.12
2023-03-20T20:50:21.995Z,60.48
2023-03-20T20:52:50.115Z,60.67
2023-03-20T20:55:23.109Z,59.93
2023-03-20T20:57:55.415Z,60.52
2023-03-20T21:00:37.260Z,61.71
2023-03-20T21:03:08.716Z,62.82
2023-03-20T21:05:37.495Z,62.24
2023-03-20T21:08:04.771Z,61.93
2023-03-20T21:10:31.825Z,61.57
2023-03-20T21:12:59.981Z,59.95
2023-03-20T21:15:30.475Z,60.58
2023-03-20T21:18:01.421Z,61.25
2023-03-20T21:20:31.391Z,60.66
2023-03-20T21:22:58.908Z,59.60
2023-03-20T21:25:39.184Z,59.81
2023-03-20T21:28:09.746Z,60.24
2023-03-20T21:30:44.178Z,60.14
2023-03-20T21:33:18.095Z,59.74
2023-03-20T21:35:47.533Z,59.85
2023-03-20T21:41:11.581Z,61.52
2023-03-20T21:43:39.521Z,61.36
2023-03-20T21:46:42.328Z,61.16
2023-03-20T21:55:04.184Z,61.17
2023-03-20T22:02:58.928Z,61.34
2023-03-20T22:06:31.830Z,62.30
2023-03-20T22:09:13.872Z,61.44
2023-03-20T22:23:07.556Z,62.65
2023-03-20T22:28:36.700Z,62.65
2023-03-20T22:31:26.887Z,63.67
2023-03-20T22:37:23.155Z,63.04
2023-03-20T22:39:45.801Z,63.75
2023-03-20T22:42:35.262Z,64.37
2023-03-20T22:44:59.240Z,64.27
2023-03-20T22:47:26.662Z,63.96
2023-03-20T22:49:53.788Z,64.12
2023-03-20T22:52:31.674Z,64.51
2023-03-20T22:54:59.625Z,64.01
2023-03-20T22:57:40.220Z,63.76
2023-03-20T23:00:12.406Z,62.89
2023-03-20T23:02:39.639Z,62.62
2023-03-20T23:05:08.085Z,62.24
2023-03-20T23:07:37.160Z,62.25
2023-03-20T23:10:06.185Z,62.20
2023-03-20T23:12:33.402Z,63.16
2023-03-20T23:15:00.527Z,62.12
2023-03-20T23:17:27.648Z,62.29
2023-03-20T23:20:08.725Z,61.94
2023-03-20T23:22:38.544Z,61.75
2023-03-20T23:25:16.489Z,62.79
2023-03-20T23:27:51.316Z,62.33
2023-03-20T23:30:19.793Z,61.89
2023-03-20T23:32:47.024Z,62.72
2023-03-20T23:35:14.155Z,62.28
2023-03-20T23:37:41.371Z,61.74
2023-03-20T23:40:09.754Z,62.18
2023-03-20T23:42:36.922Z,62.38
2023-03-20T23:45:19.142Z,61.36
2023-03-20T23:47:48.199Z,62.53
2023-03-20T23:50:27.694Z,61.83
2023-03-20T23:53:13.215Z,61.41
2023-03-20T23:55:48.783Z,61.79
2023-03-20T23:58:16.834Z,61.99
